Time;durP1;ratioP1;P1;durP2;ratioP2;P2;SDS_P1;SDS_P2;PMS_P1;PMS_P2;Temp;Humidity;BMP_temperature;BMP_pressure;BME280_temperature;BME280_humidity;BME280_pressure;Samples;Min_cycle;Max_cycle;Signal;HPM_P1;HPM_P2
2023/06/12 17:28:39;;;;;;;5.30;3.20;;;;;;;26.36;52.62;100447.56;5131029;27;20410;-56
2023/06/12 17:31:06;;;;;;;4.75;3.30;;;;;;;26.35;52.62;100444.00;5130529;28;20046;-56
2023/06/12 17:33:39;;;;;;;4.28;3.15;;;;;;;26.35;52.76;100446.72;5130600;28;20047;-56
2023/06/12 17:36:06;;;;;;;14.70;4.30;;;;;;;26.35;52.83;100444.00;5130746;28;20062;-56
2023/06/12 17:38:34;;;;;;;4.05;3.28;;;;;;;26.35;52.75;100449.44;5130327;27;20380;-56
2023/06/12 17:41:01;;;;;;;3.85;3.05;;;;;;;26.35;52.94;100445.88;5130823;28;20043;-57
2023/06/12 17:43:28;;;;;;;6.35;3.10;;;;;;;26.36;53.09;100450.25;5129717;28;20487;-58
2023/06/12 17:45:56;;;;;;;5.57;3.35;;;;;;;26.35;53.03;100448.59;5130539;28;20058;-57
2023/06/12 17:48:23;;;;;;;4.32;3.38;;;;;;;26.36;53.08;100450.25;5130247;28;20050;-58
2023/06/12 17:50:51;;;;;;;4.50;3.38;;;;;;;26.36;53.11;100452.97;5128880;28;20388;-56
2023/06/12 17:53:19;;;;;;;4.07;3.40;;;;;;;26.35;53.18;100445.88;5129963;28;20047;-57
2023/06/12 17:55:46;;;;;;;3.80;2.97;;;;;;;26.35;53.25;100451.31;5130222;28;20404;-57
2023/06/12 17:58:14;;;;;;;3.63;3.00;;;;;;;26.34;53.24;100449.63;5130259;28;20039;-56
2023/06/12 18:00:45;;;;;;;4.35;3.47;;;;;;;26.34;53.39;100449.63;5129952;28;20074;-55
2023/06/12 18:03:12;;;;;;;3.97;3.40;;;;;;;26.33;53.38;100459.66;5130232;28;20070;-56
2023/06/12 18:05:40;;;;;;;4.95;2.85;;;;;;;26.33;53.22;100453.34;5130003;28;20395;-56
2023/06/12 18:08:08;;;;;;;4.18;3.05;;;;;;;26.33;53.30;100448.78;5129864;28;20498;-58
2023/06/12 18:10:36;;;;;;;3.60;2.80;;;;;;;26.33;53.41;100462.34;5114262;27;20059;-55
2023/06/12 18:13:04;;;;;;;5.18;3.35;;;;;;;26.33;53.34;100456.06;5109249;28;20522;-56
2023/06/12 18:15:32;;;;;;;4.03;3.13;;;;;;;26.32;53.42;100451.66;5109203;28;20044;-56
2023/06/12 18:17:59;;;;;;;4.32;3.15;;;;;;;26.32;53.54;100460.66;5109789;28;20070;-54
2023/06/12 18:20:27;;;;;;;3.60;2.90;;;;;;;26.33;53.57;100453.34;5109192;28;20059;-57
2023/06/12 18:22:54;;;;;;;4.95;3.35;;;;;;;26.32;53.73;100460.66;5109133;28;20055;-55
2023/06/12 18:25:22;;;;;;;3.60;3.13;;;;;;;26.32;53.61;100454.38;5109477;28;20448;-56
2023/06/12 18:27:50;;;;;;;4.38;3.30;;;;;;;26.31;53.67;100469.81;5104642;28;20048;-55
2023/06/12 18:30:18;;;;;;;3.88;3.30;;;;;;;26.31;53.59;100463.56;5095314;28;20040;-56
2023/06/12 18:32:45;;;;;;;4.38;3.10;;;;;;;26.31;53.62;100463.56;5095851;28;20040;-54
2023/06/12 18:35:13;;;;;;;3.45;2.95;;;;;;;26.31;53.82;100469.81;5095347;28;20055;-56
2023/06/12 18:37:41;;;;;;;3.80;3.05;;;;;;;26.31;53.74;100469.81;5095230;28;20490;-56
2023/06/12 18:40:09;;;;;;;4.07;3.47;;;;;;;26.30;53.69;100468.16;5094499;28;20415;-56
2023/06/12 18:42:36;;;;;;;3.60;2.95;;;;;;;26.31;53.91;100482.56;5095218;28;20514;-57
2023/06/12 18:45:05;;;;;;;4.78;3.28;;;;;;;26.30;53.65;100480.88;5095216;28;20051;-58
2023/06/12 18:47:32;;;;;;;3.50;2.92;;;;;;;26.29;53.76;100474.63;5095465;28;20067;-58
2023/06/12 18:50:00;;;;;;;4.35;3.22;;;;;;;26.29;53.93;100484.59;5095086;28;20039;-58
2023/06/12 18:52:27;;;;;;;3.78;3.15;;;;;;;26.29;53.94;100479.16;5093185;28;20051;-57
2023/06/12 18:54:54;;;;;;;4.25;3.28;;;;;;;26.28;53.91;100477.50;5095346;28;20040;-56
2023/06/12 18:57:22;;;;;;;5.30;3.42;;;;;;;26.29;53.93;100476.47;5094714;28;20515;-55
2023/06/12 18:59:50;;;;;;;4.63;3.17;;;;;;;26.28;53.94;100477.50;5094912;28;20040;-55
2023/06/12 19:02:17;;;;;;;3.53;3.00;;;;;;;26.27;53.86;100479.38;5094700;28;20044;-57
2023/06/12 19:04:45;;;;;;;4.60;3.55;;;;;;;26.27;54.05;100481.25;5095072;28;20050;-58
2023/06/12 19:07:16;;;;;;;3.75;2.97;;;;;;;26.27;53.93;100490.22;5094710;28;20055;-58
2023/06/12 19:09:44;;;;;;;3.53;3.07;;;;;;;26.27;54.03;100486.66;5094593;28;20063;-58
2023/06/12 19:12:12;;;;;;;5.10;3.28;;;;;;;26.27;54.21;100492.94;5095018;28;20048;-56
2023/06/12 19:14:39;;;;;;;4.35;3.15;;;;;;;26.26;54.10;100488.53;5094601;28;20056;-56
2023/06/12 19:17:07;;;;;;;3.65;3.10;;;;;;;26.26;54.04;100495.84;5094801;28;20047;-56
2023/06/12 19:19:35;;;;;;;4.35;2.83;;;;;;;26.25;54.02;100484.16;5094429;28;20044;-55
2023/06/12 19:22:02;;;;;;;4.15;3.33;;;;;;;26.27;53.92;100500.25;5094497;28;20051;-58
2023/06/12 19:24:30;;;;;;;4.28;3.38;;;;;;;26.25;53.89;100492.28;5094382;28;20054;-58
2023/06/12 19:26:57;;;;;;;6.30;3.63;;;;;;;26.26;53.96;100495.84;5094169;28;20048;-58
2023/06/12 19:29:25;;;;;;;3.50;2.80;;;;;;;26.27;54.07;100494.81;5094597;28;20055;-58
2023/06/12 19:31:53;;;;;;;4.43;3.08;;;;;;;26.26;53.95;100490.41;5094216;28;20052;-56
2023/06/12 19:34:20;;;;;;;4.10;3.08;;;;;;;26.25;54.09;100495.00;5094466;28;20404;-55
2023/06/12 19:36:48;;;;;;;3.35;2.95;;;;;;;26.26;54.04;100501.28;5094030;28;20040;-56
2023/06/12 19:39:15;;;;;;;3.53;2.58;;;;;;;26.25;54.13;100511.28;5093586;28;20403;-56
2023/06/12 19:41:42;;;;;;;3.03;2.50;;;;;;;26.24;53.91;100504.16;5094472;28;20052;-56
2023/06/12 19:44:10;;;;;;;4.25;3.10;;;;;;;26.24;54.01;100504.16;5093968;28;20054;-56
2023/06/12 19:46:41;;;;;;;3.50;2.88;;;;;;;26.25;54.08;100497.72;5094443;28;20044;-56
2023/06/12 19:49:08;;;;;;;4.28;3.22;;;;;;;26.24;54.33;100500.59;5094782;28;20040;-60
2023/06/12 19:51:35;;;;;;;3.85;2.90;;;;;;;26.24;54.17;100498.72;5093093;28;20052;-61
2023/06/12 19:54:04;;;;;;;3.97;3.05;;;;;;;26.22;54.35;100511.66;5092298;28;20051;-60
2023/06/12 19:56:32;;;;;;;4.20;3.10;;;;;;;26.22;53.97;100511.66;5093659;28;20502;-61
2023/06/12 19:59:01;;;;;;;3.55;3.10;;;;;;;26.20;53.81;100512.84;5094185;28;20040;-62
2023/06/12 20:01:28;;;;;;;3.40;2.80;;;;;;;26.19;53.49;100511.19;5092777;28;20052;-61
2023/06/12 20:03:56;;;;;;;3.72;2.88;;;;;;;26.18;53.44;100518.47;5094413;28;20051;-60
2023/06/12 20:06:24;;;;;;;4.93;3.45;;;;;;;26.17;53.26;100521.34;5093872;28;20072;-61
2023/06/12 20:08:51;;;;;;;3.83;2.88;;;;;;;26.16;53.14;100519.69;5093955;28;20040;-61
2023/06/12 20:11:20;;;;;;;3.45;2.58;;;;;;;26.13;53.12;100519.03;5094245;28;20040;-61
2023/06/12 20:13:47;;;;;;;3.75;2.80;;;;;;;26.13;53.10;100527.19;5093965;28;20044;-60
2023/06/12 20:16:14;;;;;;;5.25;2.80;;;;;;;26.10;53.06;100519.41;5093705;28;20636;-60
2023/06/12 20:18:42;;;;;;;5.18;3.45;;;;;;;26.09;53.04;100528.56;5095137;28;20487;-60
2023/06/12 20:21:09;;;;;;;4.18;2.92;;;;;;;26.06;53.03;100528.94;5092765;28;20492;-61
2023/06/12 20:23:37;;;;;;;3.75;3.33;;;;;;;26.06;53.11;100530.81;5093930;28;20364;-60
2023/06/12 20:26:05;;;;;;;3.80;3.20;;;;;;;26.03;53.20;100525.75;5093399;28;20044;-62
2023/06/12 20:28:32;;;;;;;4.15;2.85;;;;;;;26.03;53.31;100521.16;5076695;28;20045;-61
2023/06/12 20:30:59;;;;;;;3.67;2.95;;;;;;;26.00;53.46;100518.78;5073660;28;20052;-62
2023/06/12 20:33:27;;;;;;;4.60;3.45;;;;;;;25.99;53.51;100525.25;5073185;28;20056;-61
2023/06/12 20:35:55;;;;;;;3.63;3.15;;;;;;;25.99;53.38;100521.72;5073694;28;20070;-61
2023/06/12 20:38:22;;;;;;;3.42;2.80;;;;;;;25.97;53.37;100529.16;5073250;28;20044;-60
2023/06/12 20:40:50;;;;;;;4.07;3.10;;;;;;;25.96;53.51;100522.91;5073346;28;20044;-60
2023/06/12 20:43:17;;;;;;;5.60;3.33;;;;;;;25.94;53.55;100526.84;5072555;28;20048;-59
2023/06/12 20:45:44;;;;;;;4.05;3.17;;;;;;;25.94;53.59;100518.72;5073344;28;20396;-59
2023/06/12 20:48:12;;;;;;;3.85;3.25;;;;;;;25.94;53.67;100526.84;5076703;28;20032;-59
2023/06/12 20:50:39;;;;;;;4.18;2.80;;;;;;;25.93;53.75;100515.16;5093257;28;20496;-59
2023/06/12 20:53:07;;;;;;;3.78;2.92;;;;;;;25.95;53.85;100521.22;5092932;28;20377;-60
2023/06/12 20:55:34;;;;;;;3.60;2.75;;;;;;;25.93;53.85;100515.16;5092517;28;20052;-60
2023/06/12 20:58:02;;;;;;;4.85;3.45;;;;;;;25.91;53.89;100514.47;5092473;28;20476;-60
2023/06/12 21:00:29;;;;;;;3.72;2.70;;;;;;;25.89;53.88;100521.97;5093519;28;20059;-62
2023/06/12 21:02:57;;;;;;;3.75;2.80;;;;;;;25.87;53.93;100524.84;5092994;28;20056;-62
2023/06/12 21:05:25;;;;;;;4.97;2.90;;;;;;;25.86;53.84;100520.47;5093710;28;20388;-61
2023/06/12 21:07:52;;;;;;;4.47;3.70;;;;;;;25.85;54.09;100510.66;5093392;28;20047;-63
2023/06/12 21:10:20;;;;;;;3.60;2.97;;;;;;;25.86;54.04;100508.78;5093020;28;20059;-61
2023/06/12 21:12:48;;;;;;;3.88;2.92;;;;;;;25.87;54.07;100510.44;5093593;28;20048;-63
2023/06/12 21:15:16;;;;;;;4.65;2.83;;;;;;;25.86;54.10;100501.47;5093174;28;20048;-61
2023/06/12 21:17:46;;;;;;;4.03;2.50;;;;;;;25.86;54.05;100508.78;5093043;28;20067;-61
2023/06/12 21:20:14;;;;;;;3.78;2.80;;;;;;;25.86;54.09;100506.06;5093382;28;20051;-61
2023/06/12 21:22:43;;;;;;;6.18;3.20;;;;;;;25.85;54.11;100507.09;5092840;28;20051;-59
2023/06/12 21:25:14;;;;;;;4.57;3.60;;;;;;;25.83;54.25;100504.53;5092931;28;20048;-59
2023/06/12 21:27:42;;;;;;;4.93;3.20;;;;;;;25.84;54.38;100502.66;5092941;28;20052;-59
2023/06/12 21:30:10;;;;;;;4.50;3.42;;;;;;;25.83;54.29;100503.69;5093129;28;20411;-59
2023/06/12 21:32:39;;;;;;;5.05;2.97;;;;;;;25.81;54.29;100497.63;5093243;28;20388;-60
2023/06/12 21:35:08;;;;;;;4.05;2.60;;;;;;;25.77;54.42;100499.88;5092957;28;20388;-59
2023/06/12 21:37:35;;;;;;;3.95;2.92;;;;;;;25.76;54.45;100502.72;5092920;28;20044;-61
2023/06/12 21:40:03;;;;;;;4.53;3.30;;;;;;;25.74;54.36;100502.91;5092071;28;20048;-62
2023/06/12 21:42:30;;;;;;;3.90;3.13;;;;;;;25.74;54.40;100502.91;5082768;28;20040;-57
2023/06/12 21:44:58;;;;;;;3.33;2.97;;;;;;;25.75;54.47;100503.75;5084530;28;20051;-58
2023/06/12 21:47:26;;;;;;;4.38;2.90;;;;;;;25.76;54.29;100502.72;5092417;28;20051;-55
2023/06/12 21:49:54;;;;;;;3.58;2.83;;;;;;;25.76;54.44;100510.84;5092718;28;20040;-56
2023/06/12 21:52:21;;;;;;;3.63;2.95;;;;;;;25.78;54.22;100503.41;5093184;28;20052;-62
2023/06/12 21:54:48;;;;;;;4.00;3.00;;;;;;;25.78;54.57;100508.84;5091924;28;20472;-62
2023/06/12 21:57:16;;;;;;;4.80;2.92;;;;;;;25.77;54.58;100513.44;5092468;28;20051;-60
2023/06/12 21:59:43;;;;;;;3.58;3.10;;;;;;;25.77;54.64;100509.84;5092390;28;20048;-62
2023/06/12 22:02:12;;;;;;;4.40;2.97;;;;;;;25.75;54.72;100515.44;5093314;28;20048;-60
2023/06/12 22:04:40;;;;;;;3.92;3.15;;;;;;;25.74;54.67;100513.75;5096013;28;20056;-60
2023/06/12 22:07:07;;;;;;;3.53;2.85;;;;;;;25.73;54.98;100511.22;5096500;28;20048;-59
2023/06/12 22:09:35;;;;;;;3.45;3.13;;;;;;;25.71;54.76;100511.41;5096790;28;20044;-59
2023/06/12 22:12:02;;;;;;;5.97;3.40;;;;;;;25.71;54.96;100510.56;5096597;28;20052;-57
2023/06/12 22:14:29;;;;;;;3.92;3.00;;;;;;;25.69;54.90;100505.31;5096470;28;20389;-57
2023/06/12 22:16:57;;;;;;;4.43;2.97;;;;;;;25.67;55.21;100504.66;5096524;28;20044;-58
2023/06/12 22:19:24;;;;;;;3.67;2.92;;;;;;;25.65;55.38;100515.69;5096610;28;20044;-57
2023/06/12 22:21:52;;;;;;;3.67;3.00;;;;;;;25.63;55.45;100515.00;5096133;28;20048;-61
2023/06/12 22:24:23;;;;;;;4.88;3.50;;;;;;;25.63;55.54;100515.00;5095968;28;20060;-63
2023/06/12 22:26:50;;;;;;;3.95;3.20;;;;;;;25.63;55.44;100512.28;5095390;28;20048;-61
2023/06/12 22:29:18;;;;;;;4.00;3.08;;;;;;;25.61;55.68;100503.50;5075942;28;20047;-60
2023/06/12 22:31:45;;;;;;;4.38;3.40;;;;;;;25.60;55.41;100503.69;5075929;28;20049;-57
2023/06/12 22:34:14;;;;;;;4.35;3.35;;;;;;;25.59;55.57;100504.72;5077920;28;20051;-58
2023/06/12 22:36:42;;;;;;;3.65;2.90;;;;;;;25.57;55.61;100507.63;5096020;28;20040;-57
2023/06/12 22:39:09;;;;;;;6.18;3.67;;;;;;;25.56;55.68;100505.94;5095929;28;20483;-57
2023/06/12 22:41:37;;;;;;;4.65;3.25;;;;;;;25.55;55.66;100504.22;5096372;28;20042;-58
2023/06/12 22:44:04;;;;;;;4.18;3.30;;;;;;;25.54;55.77;100507.97;5095982;28;20384;-57
2023/06/12 22:46:34;;;;;;;4.57;3.30;;;;;;;25.53;56.01;100494.59;5095431;28;20388;-58
2023/06/12 22:49:02;;;;;;;5.78;3.25;;;;;;;25.54;56.03;100509.84;5095284;28;20044;-56
2023/06/12 22:51:30;;;;;;;5.35;3.38;;;;;;;25.56;56.09;100505.94;5094987;28;20419;-59
2023/06/12 22:53:57;;;;;;;3.92;3.13;;;;;;;25.61;56.16;100503.50;5095340;28;20044;-59
2023/06/12 22:56:25;;;;;;;3.88;3.30;;;;;;;25.64;56.20;100500.44;5095702;28;20058;-59
2023/06/12 22:58:52;;;;;;;4.63;3.42;;;;;;;25.68;56.13;100491.94;5095702;28;20476;-58
2023/06/12 23:01:19;;;;;;;5.22;3.28;;;;;;;25.71;56.54;100491.56;5095862;28;20055;-55
2023/06/12 23:03:47;;;;;;;3.90;3.33;;;;;;;25.73;56.29;100494.97;5096070;28;20040;-56
2023/06/12 23:06:14;;;;;;;4.40;2.90;;;;;;;25.75;56.22;100491.03;5095844;28;20229;-57
2023/06/12 23:08:43;;;;;;;4.90;3.20;;;;;;;25.78;56.26;100489.84;5095744;28;20052;-57
2023/06/12 23:11:10;;;;;;;5.97;3.42;;;;;;;25.79;56.23;100477.97;5096023;28;20059;-59
2023/06/12 23:13:37;;;;;;;3.67;3.05;;;;;;;25.81;56.25;100475.94;5095563;28;20483;-59
2023/06/12 23:16:05;;;;;;;3.50;2.65;;;;;;;25.82;56.22;100481.16;5095578;28;20483;-59
2023/06/12 23:18:33;;;;;;;4.85;3.38;;;;;;;25.83;56.24;100476.59;5095439;28;20048;-59
2023/06/12 23:21:01;;;;;;;3.42;3.10;;;;;;;25.84;56.25;100475.56;5095705;28;20044;-58
2023/06/12 23:23:32;;;;;;;4.00;3.13;;;;;;;25.85;56.15;100469.13;5095596;28;20063;-59
2023/06/12 23:26:01;;;;;;;3.75;3.08;;;;;;;25.85;56.30;100466.41;5095534;28;20036;-59
2023/06/12 23:28:32;;;;;;;4.22;3.58;;;;;;;25.86;56.23;100474.34;5095365;28;20044;-59
2023/06/12 23:31:02;;;;;;;4.38;3.00;;;;;;;25.87;56.33;100472.47;5095564;28;20054;-57
2023/06/12 23:33:30;;;;;;;7.13;3.92;;;;;;;25.87;56.19;100472.47;5095400;28;20118;-57
2023/06/12 23:35:57;;;;;;;3.67;2.97;;;;;;;25.87;56.22;100469.78;5095545;28;20052;-57
2023/06/12 23:38:25;;;;;;;4.63;3.33;;;;;;;25.87;56.16;100475.19;5095354;28;20055;-57
2023/06/12 23:40:52;;;;;;;4.40;3.60;;;;;;;25.87;56.04;100462.47;5095189;28;20044;-57
2023/06/12 23:43:19;;;;;;;4.38;3.40;;;;;;;25.87;56.14;100465.19;5095292;28;20044;-57
2023/06/12 23:45:47;;;;;;;5.50;3.25;;;;;;;25.88;56.14;100463.31;5095182;28;20071;-56
2023/06/12 23:48:14;;;;;;;5.22;3.85;;;;;;;25.88;56.14;100466.03;5094556;28;20472;-57
2023/06/12 23:50:45;;;;;;;5.72;3.60;;;;;;;25.88;56.15;100461.44;5095189;28;20039;-59
2023/06/12 23:53:12;;;;;;;3.88;3.40;;;;;;;25.89;56.12;100465.84;5095349;28;20044;-59
2023/06/12 23:55:40;;;;;;;4.47;3.22;;;;;;;25.88;56.21;100458.72;5095011;28;20040;-59
2023/06/12 23:58:07;;;;;;;4.25;3.28;;;;;;;25.89;56.23;100467.72;5094992;28;20051;-59
